Time;durP1;ratioP1;P1;durP2;ratioP2;P2;SDS_P1;SDS_P2;PMS_P1;PMS_P2;Temp;Humidity;BMP_temperature;BMP_pressure;BME280_temperature;BME280_humidity;BME280_pressure;Samples;Min_cycle;Max_cycle;Signal;HPM_P1;HPM_P2
2023/06/22 00:00:56;;;;;;;22.23;17.35;;;19.20;99.90;;;;;;5080781;28;20080;-59
2023/06/22 00:03:24;;;;;;;21.38;16.25;;;19.10;99.90;;;;;;5068579;28;20378;-57
2023/06/22 00:05:49;;;;;;;21.38;17.10;;;19.10;99.90;;;;;;5060548;28;20041;-57
2023/06/22 00:08:17;;;;;;;21.67;16.17;;;19.10;99.90;;;;;;5061578;28;20036;-57
2023/06/22 00:10:43;;;;;;;23.85;18.05;;;19.00;99.90;;;;;;5067251;28;20044;-57
2023/06/22 00:13:09;;;;;;;23.05;18.13;;;18.90;99.90;;;;;;5061411;28;20049;-57
2023/06/22 00:15:37;;;;;;;24.25;18.67;;;18.90;99.90;;;;;;5065597;28;20247;-57
2023/06/22 00:18:03;;;;;;;23.20;18.67;;;18.90;99.90;;;;;;5071300;28;20076;-57
2023/06/22 00:20:29;;;;;;;24.27;18.40;;;18.90;99.90;;;;;;5061125;28;20421;-57
2023/06/22 00:23:00;;;;;;;23.38;19.08;;;18.80;99.90;;;;;;5063639;28;20041;-57
2023/06/22 00:25:26;;;;;;;24.00;19.17;;;18.80;99.90;;;;;;5060752;28;20105;-57
2023/06/22 00:27:51;;;;;;;26.75;21.13;;;18.80;99.90;;;;;;5062889;28;20075;-57
2023/06/22 00:30:18;;;;;;;26.55;20.80;;;18.80;99.90;;;;;;5064020;28;20043;-57
2023/06/22 00:32:45;;;;;;;26.58;20.20;;;18.80;99.90;;;;;;5076910;28;20051;-56
2023/06/22 00:35:12;;;;;;;28.95;22.08;;;18.80;99.90;;;;;;5078730;28;20049;-56
2023/06/22 00:37:41;;;;;;;25.25;21.10;;;18.80;99.90;;;;;;5074717;28;20130;-56
2023/06/22 00:40:11;;;;;;;30.88;22.38;;;18.80;99.90;;;;;;5079033;28;20098;-57
2023/06/22 00:42:37;;;;;;;25.45;20.30;;;18.80;99.90;;;;;;5062415;28;20032;-57
2023/06/22 00:45:04;;;;;;;25.85;20.45;;;18.80;99.90;;;;;;5060198;28;20045;-56
2023/06/22 00:47:29;;;;;;;24.52;20.45;;;18.80;99.90;;;;;;5059903;28;20072;-57
2023/06/22 00:49:55;;;;;;;26.25;20.40;;;18.80;99.90;;;;;;5059960;28;20071;-57
2023/06/22 00:52:26;;;;;;;26.98;20.70;;;18.80;99.90;;;;;;5077965;28;20107;-56
2023/06/22 00:54:52;;;;;;;27.15;21.73;;;18.80;99.90;;;;;;5072224;28;20477;-57
2023/06/22 00:57:20;;;;;;;24.83;20.65;;;18.80;99.90;;;;;;5078137;28;20044;-56
2023/06/22 00:59:48;;;;;;;27.75;22.50;;;18.80;99.90;;;;;;5060148;28;20436;-57
2023/06/22 01:02:13;;;;;;;30.15;23.60;;;18.70;99.90;;;;;;5065761;28;20055;-57
2023/06/22 01:04:40;;;;;;;27.60;22.67;;;18.70;99.90;;;;;;5079382;28;20041;-56
2023/06/22 01:07:25;;;;;;;29.05;21.65;;;18.80;99.90;;;;;;5079777;28;20048;-56
2023/06/22 01:10:09;;;;;;;27.67;23.02;;;18.70;99.90;;;;;;5066479;28;20117;-57
2023/06/22 01:12:44;;;;;;;30.48;24.77;;;18.70;99.90;;;;;;5064725;28;20060;-57
2023/06/22 01:15:42;;;;;;;30.52;24.63;;;18.70;99.90;;;;;;5073683;28;20043;-58
2023/06/22 01:18:09;;;;;;;29.15;23.63;;;18.60;99.90;;;;;;5058307;28;20056;-56
2023/06/22 01:20:36;;;;;;;30.02;23.95;;;18.60;99.90;;;;;;5063335;28;20037;-58
2023/06/22 01:23:25;;;;;;;27.58;23.00;;;18.60;99.90;;;;;;5061769;28;20048;-57
2023/06/22 01:25:59;;;;;;;31.83;23.00;;;18.60;99.90;;;;;;5074283;28;20049;-57
2023/06/22 01:28:48;;;;;;;25.75;21.92;;;18.60;99.90;;;;;;5059444;28;20036;-57
2023/06/22 01:31:17;;;;;;;28.10;22.02;;;18.60;99.90;;;;;;5058994;28;20064;-57
2023/06/22 01:33:46;;;;;;;24.88;21.08;;;18.60;99.90;;;;;;5058858;28;20078;-58
2023/06/22 01:36:13;;;;;;;28.95;22.70;;;18.60;99.90;;;;;;5059033;28;20076;-59
2023/06/22 01:38:39;;;;;;;29.45;23.42;;;18.60;99.90;;;;;;5058854;28;20036;-56
2023/06/22 01:41:05;;;;;;;24.67;21.75;;;18.60;99.90;;;;;;5059217;28;20104;-57
2023/06/22 01:43:32;;;;;;;28.27;22.73;;;18.50;99.90;;;;;;5059180;28;20106;-58
2023/06/22 01:45:59;;;;;;;26.88;22.88;;;18.50;99.90;;;;;;5059327;28;20053;-57
2023/06/22 01:48:25;;;;;;;29.27;24.25;;;18.50;99.90;;;;;;5076302;28;20075;-57
2023/06/22 01:50:53;;;;;;;27.42;22.75;;;18.50;99.90;;;;;;5078274;28;20044;-57
2023/06/22 01:53:21;;;;;;;29.20;22.92;;;18.40;99.90;;;;;;5074159;28;20029;-57
2023/06/22 01:55:48;;;;;;;28.75;23.63;;;18.40;99.90;;;;;;5061019;28;20085;-57
2023/06/22 01:58:14;;;;;;;27.35;23.70;;;18.40;99.90;;;;;;5058968;28;20052;-56
2023/06/22 02:00:44;;;;;;;28.15;25.02;;;18.30;99.90;;;;;;5071123;28;20041;-56
2023/06/22 02:03:18;;;;;;;30.33;24.73;;;18.30;99.90;;;;;;5064956;28;20419;-55
2023/06/22 02:05:54;;;;;;;28.80;25.10;;;18.30;99.90;;;;;;5078715;28;20048;-57
2023/06/22 02:08:23;;;;;;;32.47;26.23;;;18.30;99.90;;;;;;5078503;28;20054;-57
2023/06/22 02:10:52;;;;;;;32.30;26.08;;;18.20;99.90;;;;;;5077446;28;20074;-57
2023/06/22 02:13:19;;;;;;;33.08;27.85;;;18.20;99.90;;;;;;5070102;28;20048;-57
2023/06/22 02:15:46;;;;;;;35.00;26.90;;;18.20;99.90;;;;;;5059345;28;20056;-57
2023/06/22 02:18:13;;;;;;;35.35;27.85;;;18.10;99.90;;;;;;5057664;28;20076;-55
2023/06/22 02:20:40;;;;;;;34.53;29.65;;;18.10;99.90;;;;;;5074064;28;20118;-56
2023/06/22 02:23:07;;;;;;;33.97;30.08;;;18.10;99.90;;;;;;5058199;28;20059;-56
2023/06/22 02:25:33;;;;;;;37.45;31.02;;;18.00;99.90;;;;;;5056790;28;20520;-57
2023/06/22 02:27:59;;;;;;;38.38;30.80;;;18.00;99.90;;;;;;5070816;28;21607;-57
2023/06/22 02:30:24;;;;;;;33.22;28.23;;;17.90;99.90;;;;;;5058143;28;20053;-57
2023/06/22 02:32:58;;;;;;;34.97;30.02;;;17.90;99.90;;;;;;5066714;28;20567;-57
2023/06/22 02:35:31;;;;;;;42.42;32.33;;;17.90;99.90;;;;;;5078518;28;20063;-57
2023/06/22 02:38:02;;;;;;;40.17;32.00;;;17.80;99.90;;;;;;5059560;28;20049;-57
2023/06/22 02:40:30;;;;;;;40.30;32.85;;;17.80;99.90;;;;;;5071568;28;20037;-57
2023/06/22 02:43:02;;;;;;;39.70;32.47;;;17.80;99.90;;;;;;5058425;28;20037;-56
2023/06/22 02:45:28;;;;;;;44.20;34.30;;;17.70;99.90;;;;;;5071088;28;20086;-57
2023/06/22 02:47:54;;;;;;;38.25;30.83;;;17.60;99.90;;;;;;5059813;28;20036;-57
2023/06/22 02:50:20;;;;;;;41.72;32.72;;;17.70;99.90;;;;;;5058629;28;20068;-57
2023/06/22 02:52:46;;;;;;;39.70;32.72;;;17.60;99.90;;;;;;5058659;28;20032;-57
2023/06/22 02:55:12;;;;;;;37.67;31.05;;;17.60;99.90;;;;;;5057748;28;20056;-56
2023/06/22 02:57:37;;;;;;;39.80;29.63;;;17.50;99.90;;;;;;5061365;28;20121;-57
2023/06/22 03:00:17;;;;;;;38.33;30.20;;;17.40;99.90;;;;;;5057754;28;20037;-57
2023/06/22 03:02:46;;;;;;;33.88;29.73;;;17.40;99.90;;;;;;5058173;28;20065;-56
2023/06/22 03:05:14;;;;;;;32.33;27.23;;;17.30;99.90;;;;;;5058368;28;20041;-58
2023/06/22 03:07:41;;;;;;;32.20;28.42;;;17.30;99.90;;;;;;5058271;28;20088;-57
2023/06/22 03:10:11;;;;;;;33.88;27.50;;;17.30;99.90;;;;;;5058292;28;20074;-57
2023/06/22 03:12:38;;;;;;;32.40;27.15;;;17.30;99.90;;;;;;5058919;28;20041;-57
2023/06/22 03:15:09;;;;;;;35.60;29.75;;;17.30;99.90;;;;;;5064956;28;20064;-59
2023/06/22 03:17:35;;;;;;;36.92;28.63;;;17.30;99.90;;;;;;5064157;28;20045;-57
2023/06/22 03:20:09;;;;;;;36.67;29.02;;;17.30;99.90;;;;;;5061649;28;20044;-56
2023/06/22 03:22:43;;;;;;;39.78;31.25;;;17.30;99.90;;;;;;5078445;28;20142;-57
2023/06/22 03:25:10;;;;;;;41.83;31.52;;;17.30;99.90;;;;;;5079919;28;20108;-57
2023/06/22 03:27:45;;;;;;;38.33;30.70;;;17.30;99.90;;;;;;5072503;28;20049;-56
2023/06/22 03:30:12;;;;;;;37.67;31.10;;;17.30;99.90;;;;;;5081350;28;20049;-57
2023/06/22 03:32:37;;;;;;;34.22;30.38;;;17.30;99.90;;;;;;5074518;28;20033;-56
2023/06/22 03:35:03;;;;;;;37.17;30.25;;;17.30;99.90;;;;;;5073185;28;20105;-57
2023/06/22 03:37:29;;;;;;;37.03;30.73;;;17.20;99.90;;;;;;5081737;28;20032;-60
2023/06/22 03:39:55;;;;;;;37.85;29.48;;;17.20;99.90;;;;;;5062581;28;20639;-56
2023/06/22 03:42:20;;;;;;;37.78;30.73;;;17.20;99.90;;;;;;5061453;28;20037;-56
2023/06/22 03:44:47;;;;;;;38.10;29.80;;;17.20;99.90;;;;;;5069723;28;20045;-57
2023/06/22 03:47:12;;;;;;;34.38;29.15;;;17.20;99.90;;;;;;5081270;28;20037;-57
2023/06/22 03:49:38;;;;;;;38.05;29.13;;;17.20;99.90;;;;;;5073697;28;20051;-57
2023/06/22 03:52:05;;;;;;;33.08;28.05;;;17.20;99.90;;;;;;5060701;28;20045;-57
2023/06/22 03:54:31;;;;;;;34.95;27.80;;;17.30;99.90;;;;;;5067655;28;20092;-56
2023/06/22 03:56:58;;;;;;;35.13;28.67;;;17.30;99.90;;;;;;5067878;28;20044;-57
2023/06/22 03:59:24;;;;;;;32.53;27.35;;;17.30;99.90;;;;;;5081318;28;20052;-57
2023/06/22 04:01:50;;;;;;;35.72;28.65;;;17.30;99.90;;;;;;5070373;28;20065;-56
2023/06/22 04:04:18;;;;;;;36.65;29.65;;;17.30;99.90;;;;;;5077109;28;20052;-57
2023/06/22 04:06:43;;;;;;;32.25;27.13;;;17.30;99.90;;;;;;5065655;28;20047;-57
2023/06/22 04:09:09;;;;;;;36.97;28.77;;;17.30;99.90;;;;;;5074877;28;20120;-56
2023/06/22 04:11:35;;;;;;;32.00;27.73;;;17.40;99.90;;;;;;5063878;28;20049;-57
2023/06/22 04:14:00;;;;;;;32.97;27.95;;;17.30;99.90;;;;;;5060489;28;20040;-57
2023/06/22 04:16:26;;;;;;;32.85;28.17;;;17.20;99.90;;;;;;5080782;28;20044;-57
2023/06/22 04:18:52;;;;;;;34.53;26.73;;;17.20;99.90;;;;;;5080292;28;20036;-57
2023/06/22 04:21:19;;;;;;;34.30;29.27;;;17.20;99.90;;;;;;5062630;28;20067;-57
2023/06/22 04:23:45;;;;;;;35.83;29.27;;;17.20;99.90;;;;;;5063250;28;20048;-57
2023/06/22 04:26:12;;;;;;;35.00;29.27;;;17.20;99.90;;;;;;5065646;28;20052;-57
2023/06/22 04:28:38;;;;;;;39.53;31.33;;;17.20;99.90;;;;;;5064635;28;20048;-57
2023/06/22 04:31:04;;;;;;;37.22;30.13;;;17.20;99.90;;;;;;5059920;28;20044;-57
2023/06/22 04:33:30;;;;;;;36.60;30.38;;;17.20;99.90;;;;;;5061558;28;20059;-57
2023/06/22 04:35:57;;;;;;;37.13;29.88;;;17.20;99.90;;;;;;5068356;28;20104;-57
2023/06/22 04:38:23;;;;;;;38.60;31.88;;;17.20;99.90;;;;;;5074466;28;20043;-57
2023/06/22 04:40:50;;;;;;;40.88;32.33;;;17.30;99.90;;;;;;5067999;28;20033;-57
2023/06/22 04:43:15;;;;;;;42.45;32.28;;;17.30;99.90;;;;;;5067700;28;20102;-57
2023/06/22 04:45:41;;;;;;;41.67;32.58;;;17.30;99.90;;;;;;5063752;28;20036;-57
2023/06/22 04:48:15;;;;;;;42.08;33.50;;;17.30;99.90;;;;;;5060112;28;20048;-55
2023/06/22 04:50:42;;;;;;;42.17;33.35;;;17.30;99.90;;;;;;5070666;28;20123;-57
2023/06/22 04:53:09;;;;;;;44.75;33.45;;;17.30;99.90;;;;;;5077426;28;20037;-56
2023/06/22 04:55:37;;;;;;;41.45;33.85;;;17.30;99.90;;;;;;5076661;28;20037;-56
2023/06/22 04:58:04;;;;;;;41.22;33.38;;;17.40;99.90;;;;;;5075025;28;20037;-58
2023/06/22 05:00:31;;;;;;;40.13;33.38;;;17.40;99.90;;;;;;5073685;28;20422;-57
2023/06/22 05:02:57;;;;;;;41.80;33.35;;;17.50;99.90;;;;;;5079018;28;20032;-57
2023/06/22 05:05:24;;;;;;;41.92;34.30;;;17.50;99.90;;;;;;5062077;28;20037;-56
2023/06/22 05:07:52;;;;;;;43.05;35.30;;;17.50;99.90;;;;;;5079531;28;20040;-56
2023/06/22 05:10:18;;;;;;;49.33;37.00;;;17.60;99.90;;;;;;5070194;28;20044;-57
2023/06/22 05:12:44;;;;;;;47.35;38.08;;;17.60;99.90;;;;;;5079406;28;20068;-58
2023/06/22 05:15:11;;;;;;;48.65;38.20;;;17.70;99.90;;;;;;5076744;28;20104;-57
2023/06/22 05:17:41;;;;;;;49.17;38.50;;;17.70;99.90;;;;;;5059458;28;20041;-58
2023/06/22 05:20:08;;;;;;;48.38;38.78;;;17.80;99.90;;;;;;5069935;28;20052;-57
2023/06/22 05:22:34;;;;;;;46.40;37.08;;;17.80;99.90;;;;;;5073405;28;20052;-57
2023/06/22 05:24:59;;;;;;;46.75;37.80;;;17.80;99.90;;;;;;5073563;28;20090;-58
2023/06/22 05:27:25;;;;;;;46.10;36.42;;;17.90;99.90;;;;;;5072642;28;20053;-57
2023/06/22 05:29:51;;;;;;;45.97;37.55;;;17.90;99.90;;;;;;5070640;28;20066;-56
2023/06/22 05:32:16;;;;;;;44.70;37.15;;;18.00;99.90;;;;;;5064245;28;20045;-56
2023/06/22 05:34:42;;;;;;;48.83;38.22;;;18.00;99.90;;;;;;5066187;28;20083;-57
2023/06/22 05:37:09;;;;;;;45.58;37.75;;;18.00;99.90;;;;;;5063230;28;20036;-56
2023/06/22 05:39:37;;;;;;;44.05;36.65;;;18.10;99.90;;;;;;5074308;28;20072;-57
2023/06/22 05:42:07;;;;;;;42.53;35.83;;;18.10;99.90;;;;;;5067417;28;20048;-56
2023/06/22 05:44:33;;;;;;;42.47;34.95;;;18.20;99.90;;;;;;5078277;28;20029;-57
2023/06/22 05:46:59;;;;;;;45.58;35.28;;;18.20;99.90;;;;;;5078843;28;20504;-57
2023/06/22 05:49:29;;;;;;;39.22;33.33;;;18.20;99.90;;;;;;5066338;28;20101;-56
2023/06/22 05:51:56;;;;;;;43.38;33.85;;;18.30;99.90;;;;;;5058710;28;20033;-56
2023/06/22 05:54:22;;;;;;;43.85;34.53;;;18.30;99.90;;;;;;5063228;28;20083;-56
2023/06/22 05:56:48;;;;;;;37.47;32.00;;;18.40;99.90;;;;;;5065017;28;20412;-60
2023/06/22 05:59:13;;;;;;;39.63;33.03;;;18.40;99.90;;;;;;5059045;28;20044;-56
2023/06/22 06:01:40;;;;;;;38.17;32.17;;;18.50;99.90;;;;;;5062953;28;20036;-57
2023/06/22 06:04:08;;;;;;;39.78;32.83;;;18.50;99.90;;;;;;5067858;28;20037;-57
2023/06/22 06:06:36;;;;;;;37.90;31.55;;;18.70;99.90;;;;;;5058711;28;20120;-57
2023/06/22 06:09:04;;;;;;;42.47;31.38;;;18.70;99.90;;;;;;5059027;28;20067;-57
2023/06/22 06:11:30;;;;;;;42.50;31.67;;;18.70;99.90;;;;;;5067970;28;20593;-57
2023/06/22 06:13:55;;;;;;;36.03;30.02;;;18.80;99.90;;;;;;5077626;28;20048;-56
2023/06/22 06:16:22;;;;;;;36.30;30.60;;;18.90;99.90;;;;;;5067018;28;20045;-57
2023/06/22 06:18:49;;;;;;;37.10;30.52;;;19.00;99.90;;;;;;5071797;28;20043;-57
2023/06/22 06:21:15;;;;;;;35.13;29.38;;;19.00;99.90;;;;;;5058629;28;20040;-56
2023/06/22 06:23:42;;;;;;;34.28;29.27;;;19.10;99.90;;;;;;5064839;28;20112;-57
2023/06/22 06:26:07;;;;;;;37.38;29.45;;;19.20;99.90;;;;;;5076120;28;20045;-57
2023/06/22 06:28:34;;;;;;;32.35;28.67;;;19.40;99.90;;;;;;5078814;28;20039;-57
2023/06/22 06:30:59;;;;;;;34.45;28.63;;;19.40;99.90;;;;;;5066494;28;20543;-57
2023/06/22 06:33:25;;;;;;;37.67;28.33;;;19.50;99.90;;;;;;5060644;28;20029;-57
2023/06/22 06:35:51;;;;;;;35.58;28.70;;;19.60;99.90;;;;;;5078407;28;20040;-57
2023/06/22 06:38:16;;;;;;;36.67;28.95;;;19.70;99.90;;;;;;5065460;28;20067;-57
2023/06/22 06:40:42;;;;;;;32.20;28.70;;;19.80;99.90;;;;;;5074600;28;20055;-56
2023/06/22 06:43:08;;;;;;;31.60;27.42;;;19.80;99.90;;;;;;5071602;28;20044;-57
2023/06/22 06:45:34;;;;;;;33.65;25.30;;;20.00;99.90;;;;;;5061627;28;20091;-56
2023/06/22 06:48:00;;;;;;;34.60;25.67;;;20.10;99.90;;;;;;5061173;28;20115;-58
2023/06/22 06:50:26;;;;;;;28.30;24.95;;;20.20;99.90;;;;;;5060062;28;20033;-58
2023/06/22 06:52:51;;;;;;;30.75;24.02;;;20.40;99.90;;;;;;5062297;28;20041;-57
2023/06/22 06:55:19;;;;;;;29.25;23.27;;;20.50;99.90;;;;;;5059623;28;20048;-56
2023/06/22 06:57:48;;;;;;;27.60;23.13;;;20.70;99.90;;;;;;5066969;28;20041;-57
2023/06/22 07:00:14;;;;;;;26.02;22.52;;;20.80;99.90;;;;;;5077844;28;20115;-55
2023/06/22 07:02:41;;;;;;;26.15;20.90;;;21.00;99.90;;;;;;5077468;28;20048;-55
2023/06/22 07:05:08;;;;;;;24.65;20.02;;;21.10;99.90;;;;;;5077577;28;20101;-56
2023/06/22 07:07:33;;;;;;;26.38;20.63;;;21.30;99.90;;;;;;5063832;28;20097;-55
2023/06/22 07:09:59;;;;;;;26.42;21.02;;;21.40;99.90;;;;;;5078920;28;20098;-56
2023/06/22 07:12:25;;;;;;;22.65;20.25;;;21.50;99.90;;;;;;5078195;28;20052;-56
2023/06/22 07:14:52;;;;;;;21.92;19.52;;;21.60;99.90;;;;;;5076023;28;20032;-57
2023/06/22 07:17:18;;;;;;;21.25;18.95;;;21.80;99.90;;;;;;5069627;28;20033;-56
2023/06/22 07:19:43;;;;;;;20.88;17.27;;;21.90;99.90;;;;;;5070613;28;20086;-58
2023/06/22 07:22:09;;;;;;;23.00;16.40;;;22.10;99.90;;;;;;5081259;28;20064;-56
2023/06/22 07:24:35;;;;;;;19.48;16.92;;;22.20;99.90;;;;;;5066485;28;20040;-57
2023/06/22 07:27:02;;;;;;;21.08;16.98;;;22.30;99.90;;;;;;5061284;28;20075;-56
2023/06/22 07:29:27;;;;;;;22.30;17.17;;;22.50;99.90;;;;;;5061345;28;20106;-57
2023/06/22 07:31:54;;;;;;;16.80;14.88;;;22.70;99.90;;;;;;5077199;28;20492;-56
2023/06/22 07:34:19;;;;;;;19.67;15.05;;;22.80;99.90;;;;;;5073926;28;20052;-56
2023/06/22 07:36:46;;;;;;;21.83;15.48;;;23.00;99.90;;;;;;5079660;28;20048;-56
2023/06/22 07:39:12;;;;;;;18.00;15.68;;;23.20;99.90;;;;;;5077517;28;20528;-56
2023/06/22 07:41:39;;;;;;;19.08;15.23;;;23.40;99.90;;;;;;5077313;28;20052;-55
2023/06/22 07:44:06;;;;;;;15.85;14.15;;;23.70;99.90;;;;;;5079264;28;20052;-56
2023/06/22 07:46:32;;;;;;;17.05;15.07;;;23.90;99.90;;;;;;5081340;28;20128;-56
2023/06/22 07:48:58;;;;;;;16.63;13.75;;;24.00;99.90;;;;;;5079610;28;20071;-55
2023/06/22 07:51:24;;;;;;;15.10;13.45;;;24.20;99.90;;;;;;5071888;28;20040;-56
2023/06/22 07:53:50;;;;;;;16.25;13.35;;;24.40;99.90;;;;;;5060830;28;20043;-56
2023/06/22 07:56:18;;;;;;;16.73;12.30;;;24.50;99.90;;;;;;5059469;28;20075;-56
2023/06/22 07:58:45;;;;;;;17.35;12.85;;;24.70;99.90;;;;;;5060865;28;20037;-55
2023/06/22 08:01:12;;;;;;;14.75;12.70;;;24.90;99.90;;;;;;5060597;28;20467;-56
2023/06/22 08:03:39;;;;;;;16.10;12.45;;;25.10;99.90;;;;;;5061168;28;20052;-56
2023/06/22 08:06:05;;;;;;;15.10;12.38;;;25.30;99.90;;;;;;5063201;28;20083;-56
2023/06/22 08:08:31;;;;;;;15.23;11.65;;;25.50;99.90;;;;;;5060946;28;20041;-56
2023/06/22 08:10:57;;;;;;;14.65;12.02;;;25.70;99.90;;;;;;5063052;28;20051;-57
2023/06/22 08:13:23;;;;;;;16.10;11.77;;;25.90;99.90;;;;;;5064102;28;20068;-55
2023/06/22 08:15:49;;;;;;;13.68;10.93;;;25.90;99.90;;;;;;5069737;28;20045;-56
2023/06/22 08:18:15;;;;;;;17.63;10.73;;;26.00;99.90;;;;;;5072091;28;20044;-54
2023/06/22 08:20:41;;;;;;;10.48;9.38;;;26.10;99.90;;;;;;5081123;28;20102;-56
2023/06/22 08:23:07;;;;;;;13.27;11.38;;;26.20;99.90;;;;;;5061072;28;20069;-55
2023/06/22 08:25:35;;;;;;;14.57;10.30;;;26.30;99.90;;;;;;5060443;28;20053;-56
2023/06/22 08:28:04;;;;;;;12.48;10.10;;;26.40;99.90;;;;;;5060614;28;20075;-56
2023/06/22 08:30:30;;;;;;;16.30;9.52;;;26.50;99.90;;;;;;5060523;28;20093;-57
2023/06/22 08:32:56;;;;;;;14.43;10.50;;;26.70;99.90;;;;;;5060599;28;20049;-58
2023/06/22 08:35:24;;;;;;;30.85;11.40;;;26.80;99.90;;;;;;5078567;28;20052;-57
2023/06/22 08:37:52;;;;;;;13.07;9.60;;;26.80;99.90;;;;;;5081567;28;20547;-57
2023/06/22 08:40:19;;;;;;;13.48;9.00;;;26.80;99.90;;;;;;5080041;28;20048;-57
2023/06/22 08:42:45;;;;;;;13.15;9.35;;;26.90;99.90;;;;;;5080304;28;20093;-55
2023/06/22 08:45:12;;;;;;;13.68;9.45;;;27.00;99.90;;;;;;5080267;28;20037;-56
2023/06/22 08:47:37;;;;;;;13.38;9.90;;;27.00;99.90;;;;;;5066426;28;20044;-55
2023/06/22 08:50:04;;;;;;;12.85;8.75;;;27.10;99.90;;;;;;5058807;28;20041;-54
2023/06/22 08:52:30;;;;;;;10.88;8.88;;;27.10;99.90;;;;;;5071522;28;20495;-56
2023/06/22 08:54:56;;;;;;;12.00;9.43;;;27.20;99.90;;;;;;5073996;28;20094;-56
2023/06/22 08:57:22;;;;;;;12.32;9.30;;;27.20;99.80;;;;;;5065016;28;20037;-56
2023/06/22 08:59:47;;;;;;;12.00;8.52;;;27.30;99.60;;;;;;5059959;28;20037;-56
2023/06/22 09:02:13;;;;;;;11.25;8.80;;;27.30;99.40;;;;;;5075968;28;20378;-56
2023/06/22 09:04:39;;;;;;;11.20;7.95;;;27.40;99.60;;;;;;5079794;28;20045;-56
2023/06/22 09:07:05;;;;;;;10.98;8.63;;;27.40;99.70;;;;;;5079985;28;20090;-56
2023/06/22 09:09:30;;;;;;;10.70;8.25;;;27.50;99.00;;;;;;5079709;28;20097;-56
2023/06/22 09:11:56;;;;;;;11.13;8.45;;;27.50;99.00;;;;;;5078151;28;20625;-56
2023/06/22 09:14:22;;;;;;;10.82;7.97;;;27.60;98.80;;;;;;5079522;28;20623;-55
2023/06/22 09:16:47;;;;;;;10.32;8.02;;;27.70;98.30;;;;;;5078748;28;20041;-56
2023/06/22 09:19:13;;;;;;;10.48;7.60;;;27.70;98.40;;;;;;5079450;28;20059;-55
2023/06/22 09:21:39;;;;;;;9.95;7.88;;;27.80;98.30;;;;;;5079239;28;20036;-56
2023/06/22 09:24:05;;;;;;;11.23;7.53;;;27.90;98.20;;;;;;5079411;28;20064;-55
2023/06/22 09:26:31;;;;;;;11.07;7.50;;;28.10;97.90;;;;;;5074170;28;20036;-56
2023/06/22 09:28:57;;;;;;;8.75;7.20;;;28.20;97.60;;;;;;5079893;28;20044;-55
2023/06/22 09:31:25;;;;;;;10.43;7.47;;;28.20;97.60;;;;;;5079041;28;20055;-55
2023/06/22 09:33:54;;;;;;;10.15;7.25;;;28.20;97.30;;;;;;5079178;28;20083;-55
2023/06/22 09:36:23;;;;;;;8.25;6.88;;;28.30;97.00;;;;;;5077692;28;20475;-55
2023/06/22 09:38:55;;;;;;;9.27;6.90;;;28.40;97.00;;;;;;5078129;28;20044;-56
2023/06/22 09:41:24;;;;;;;9.20;6.82;;;28.30;96.50;;;;;;5059396;28;20049;-56
2023/06/22 09:43:50;;;;;;;8.25;6.32;;;28.20;96.20;;;;;;5058987;28;20051;-56
2023/06/22 09:46:16;;;;;;;8.63;6.47;;;28.10;96.40;;;;;;5059221;28;20076;-56
2023/06/22 09:48:42;;;;;;;9.55;6.90;;;27.90;96.30;;;;;;5078959;28;20120;-56
2023/06/22 09:51:07;;;;;;;9.73;6.13;;;27.90;96.30;;;;;;5079380;28;20045;-56
2023/06/22 09:53:34;;;;;;;7.43;6.63;;;27.80;96.80;;;;;;5073484;28;20056;-56
2023/06/22 09:56:01;;;;;;;7.55;6.28;;;27.70;96.50;;;;;;5057379;28;20053;-56
2023/06/22 09:58:27;;;;;;;7.75;6.07;;;27.60;96.30;;;;;;5059186;28;20077;-56
2023/06/22 10:00:54;;;;;;;8.48;5.90;;;27.50;96.60;;;;;;5058714;28;20045;-56
2023/06/22 10:03:20;;;;;;;9.07;5.90;;;27.50;96.80;;;;;;5059321;28;20124;-56
2023/06/22 10:05:46;;;;;;;7.75;5.70;;;27.60;97.00;;;;;;5060187;28;20053;-56
2023/06/22 10:08:12;;;;;;;8.52;6.90;;;27.60;97.20;;;;;;5065384;28;20049;-56
2023/06/22 10:10:37;;;;;;;7.47;6.00;;;27.70;96.50;;;;;;5079066;28;20123;-56
2023/06/22 10:13:10;;;;;;;8.13;5.70;;;27.70;96.50;;;;;;5078910;28;20048;-57
2023/06/22 10:15:35;;;;;;;10.32;7.15;;;27.80;96.10;;;;;;5078764;28;20048;-57
2023/06/22 10:18:01;;;;;;;7.70;6.13;;;27.80;95.10;;;;;;5078594;28;20042;-56
2023/06/22 10:20:28;;;;;;;7.75;6.00;;;27.80;95.10;;;;;;5076663;28;20287;-57
2023/06/22 10:22:54;;;;;;;7.30;5.47;;;27.70;95.10;;;;;;5078362;28;20437;-56
2023/06/22 10:25:20;;;;;;;7.72;6.30;;;27.70;95.30;;;;;;5078893;28;20041;-56
2023/06/22 10:27:45;;;;;;;9.50;5.93;;;27.70;94.90;;;;;;5076407;28;20033;-56
2023/06/22 10:30:12;;;;;;;8.48;6.63;;;27.60;94.50;;;;;;5082727;28;20044;-56
2023/06/22 10:32:39;;;;;;;7.18;4.95;;;27.50;94.50;;;;;;5082784;28;20041;-56
2023/06/22 10:35:05;;;;;;;7.50;5.28;;;27.50;94.90;;;;;;5082718;28;20041;-56
2023/06/22 10:37:31;;;;;;;6.68;5.03;;;27.50;94.40;;;;;;5082780;28;20049;-56
2023/06/22 10:39:57;;;;;;;6.32;4.80;;;27.50;94.40;;;;;;5082577;28;20045;-56
2023/06/22 10:42:23;;;;;;;8.65;4.78;;;27.40;94.40;;;;;;5080194;28;20102;-56
2023/06/22 10:44:49;;;;;;;7.00;5.30;;;27.40;93.50;;;;;;5082383;28;20047;-56
2023/06/22 10:47:14;;;;;;;7.75;4.68;;;27.30;93.90;;;;;;5080509;28;20068;-56
2023/06/22 10:49:41;;;;;;;9.98;5.45;;;27.30;94.00;;;;;;5082628;28;20118;-56
2023/06/22 10:52:07;;;;;;;6.57;4.75;;;27.30;93.90;;;;;;5082160;28;20187;-56
2023/06/22 10:54:34;;;;;;;6.57;4.38;;;27.30;94.10;;;;;;5062290;28;20521;-55
2023/06/22 10:57:00;;;;;;;5.78;4.00;;;27.30;94.10;;;;;;5061750;28;20092;-56
2023/06/22 10:59:27;;;;;;;7.15;4.50;;;27.30;94.30;;;;;;5062138;28;20100;-56
2023/06/22 11:01:53;;;;;;;7.45;4.88;;;27.30;94.00;;;;;;5070009;28;20135;-55
2023/06/22 11:04:19;;;;;;;9.52;5.50;;;27.30;94.00;;;;;;5082111;28;20119;-56
2023/06/22 11:06:44;;;;;;;8.40;5.30;;;27.20;94.00;;;;;;5082192;28;20043;-56
2023/06/22 11:09:10;;;;;;;8.38;5.30;;;27.20;94.20;;;;;;5081926;28;20043;-56
2023/06/22 11:11:36;;;;;;;6.93;4.80;;;27.20;94.40;;;;;;5082123;28;20049;-56
2023/06/22 11:14:02;;;;;;;9.48;5.38;;;27.20;94.40;;;;;;5081689;28;20500;-56
2023/06/22 11:16:28;;;;;;;6.20;5.50;;;27.10;94.10;;;;;;5074407;28;20045;-57
2023/06/22 11:18:53;;;;;;;8.43;5.90;;;27.10;94.40;;;;;;5067606;28;20149;-57
2023/06/22 11:21:19;;;;;;;9.40;5.55;;;27.10;94.40;;;;;;5079737;28;20108;-57
2023/06/22 11:23:45;;;;;;;8.27;5.70;;;27.10;94.70;;;;;;5080402;28;20056;-57
2023/06/22 11:26:11;;;;;;;8.52;5.30;;;27.10;94.30;;;;;;5071942;28;20049;-56
2023/06/22 11:28:36;;;;;;;6.28;4.65;;;27.10;94.50;;;;;;5062843;28;20163;-56
2023/06/22 11:31:03;;;;;;;8.23;5.40;;;27.00;94.50;;;;;;5061100;28;20037;-56
2023/06/22 11:33:28;;;;;;;7.15;4.30;;;27.00;94.30;;;;;;5061789;28;20052;-57
2023/06/22 11:35:56;;;;;;;7.50;4.63;;;27.00;94.40;;;;;;5066756;28;20043;-57
2023/06/22 11:38:22;;;;;;;8.15;5.07;;;27.00;94.20;;;;;;5073310;28;20087;-57
2023/06/22 11:40:47;;;;;;;8.65;5.22;;;27.00;94.40;;;;;;5075744;28;20037;-57
2023/06/22 11:43:14;;;;;;;7.78;5.20;;;27.10;94.60;;;;;;5079615;28;20100;-58
2023/06/22 11:45:40;;;;;;;7.90;4.90;;;27.00;94.80;;;;;;5079381;28;20071;-57
2023/06/22 11:48:06;;;;;;;5.45;4.53;;;27.00;94.70;;;;;;5062892;28;20033;-56
2023/06/22 11:50:35;;;;;;;9.02;4.85;;;27.00;94.40;;;;;;5061662;28;20037;-58
2023/06/22 11:53:04;;;;;;;6.47;4.40;;;27.00;94.20;;;;;;5060871;28;20405;-57
2023/06/22 11:55:29;;;;;;;7.07;4.80;;;27.00;94.00;;;;;;5061951;28;20045;-57
2023/06/22 11:57:59;;;;;;;7.13;4.18;;;27.00;93.90;;;;;;5060886;28;20045;-58
2023/06/22 12:00:25;;;;;;;8.07;4.93;;;26.90;94.00;;;;;;5061366;28;20041;-57
2023/06/22 12:02:51;;;;;;;7.68;5.57;;;26.90;94.10;;;;;;5072212;28;20555;-58
2023/06/22 12:05:24;;;;;;;8.25;5.45;;;26.90;93.80;;;;;;5066073;28;20041;-57
2023/06/22 12:07:52;;;;;;;6.07;4.90;;;26.90;94.10;;;;;;5081137;28;20441;-57
2023/06/22 12:10:18;;;;;;;7.57;5.20;;;26.80;94.00;;;;;;5078400;28;20029;-57
2023/06/22 12:12:44;;;;;;;6.35;4.35;;;26.80;94.10;;;;;;5072799;28;20044;-56
2023/06/22 12:15:10;;;;;;;7.90;5.72;;;26.80;94.50;;;;;;5060851;28;20091;-57
2023/06/22 12:17:36;;;;;;;5.93;5.15;;;26.80;94.00;;;;;;5062282;28;20036;-57
2023/06/22 12:20:05;;;;;;;6.63;5.60;;;26.70;93.80;;;;;;5080009;28;20123;-57
2023/06/22 12:22:32;;;;;;;6.55;5.15;;;26.60;93.80;;;;;;5079734;28;20066;-57
2023/06/22 12:24:57;;;;;;;7.22;5.18;;;26.60;93.90;;;;;;5064818;28;20051;-57
2023/06/22 12:27:23;;;;;;;6.68;4.40;;;26.60;94.10;;;;;;5080446;28;20037;-57
2023/06/22 12:29:49;;;;;;;10.70;5.88;;;26.60;94.30;;;;;;5069945;28;20075;-56
2023/06/22 12:32:15;;;;;;;7.45;4.80;;;26.70;93.90;;;;;;5071704;28;20036;-57